sensor_id;sensor_type;location;lat;lon;timestamp;P1;durP1;ratioP1;P2;durP2;ratioP2
13197;SDS011;6664;52.514;13.440;2022-08-05T00:00:11;3.40;;;3.00;;
13197;SDS011;6664;52.514;13.440;2022-08-05T00:02:41;3.73;;;3.00;;
13197;SDS011;6664;52.514;13.440;2022-08-05T00:05:17;3.67;;;3.10;;
13197;SDS011;6664;52.514;13.440;2022-08-05T00:08:07;3.20;;;3.00;;
13197;SDS011;6664;52.514;13.440;2022-08-05T00:10:55;3.13;;;2.93;;
13197;SDS011;6664;52.514;13.440;2022-08-05T00:13:27;3.00;;;2.80;;
13197;SDS011;6664;52.514;13.440;2022-08-05T00:16:05;3.40;;;3.10;;
13197;SDS011;6664;52.514;13.440;2022-08-05T00:18:37;3.13;;;2.93;;
13197;SDS011;6664;52.514;13.440;2022-08-05T00:21:07;3.30;;;2.70;;
13197;SDS011;6664;52.514;13.440;2022-08-05T00:23:35;3.03;;;2.83;;
13197;SDS011;6664;52.514;13.440;2022-08-05T00:26:18;3.47;;;3.17;;
13197;SDS011;6664;52.514;13.440;2022-08-05T00:28:48;3.30;;;2.90;;
13197;SDS011;6664;52.514;13.440;2022-08-05T00:31:16;3.50;;;3.20;;
13197;SDS011;6664;52.514;13.440;2022-08-05T00:34:05;4.60;;;3.67;;
13197;SDS011;6664;52.514;13.440;2022-08-05T00:36:57;3.73;;;3.40;;
13197;SDS011;6664;52.514;13.440;2022-08-05T00:39:38;4.73;;;3.67;;
13197;SDS011;6664;52.514;13.440;2022-08-05T00:42:32;6.50;;;3.23;;
13197;SDS011;6664;52.514;13.440;2022-08-05T00:45:04;3.83;;;3.47;;
13197;SDS011;6664;52.514;13.440;2022-08-05T00:47:38;2.90;;;2.60;;
13197;SDS011;6664;52.514;13.440;2022-08-05T00:50:24;5.60;;;3.60;;
13197;SDS011;6664;52.514;13.440;2022-08-05T00:52:52;4.23;;;3.30;;
13197;SDS011;6664;52.514;13.440;2022-08-05T00:55:22;6.63;;;3.57;;
13197;SDS011;6664;52.514;13.440;2022-08-05T00:58:08;5.43;;;3.87;;
13197;SDS011;6664;52.514;13.440;2022-08-05T01:00:37;4.40;;;4.00;;
13197;SDS011;6664;52.514;13.440;2022-08-05T01:03:05;3.70;;;3.40;;
13197;SDS011;6664;52.514;13.440;2022-08-05T01:05:48;3.60;;;3.30;;
13197;SDS011;6664;52.514;13.440;2022-08-05T01:08:19;6.07;;;3.77;;
13197;SDS011;6664;52.514;13.440;2022-08-05T01:11:08;3.80;;;3.50;;
13197;SDS011;6664;52.514;13.440;2022-08-05T01:13:47;3.97;;;3.20;;
13197;SDS011;6664;52.514;13.440;2022-08-05T01:30:22;3.60;;;3.30;;
13197;SDS011;6664;52.514;13.440;2022-08-05T01:33:00;12.83;;;3.80;;
13197;SDS011;6664;52.514;13.440;2022-08-05T01:35:37;5.13;;;3.70;;
13197;SDS011;6664;52.514;13.440;2022-08-05T01:38:17;4.50;;;3.60;;
13197;SDS011;6664;52.514;13.440;2022-08-05T01:40:52;4.93;;;3.30;;
13197;SDS011;6664;52.514;13.440;2022-08-05T01:43:22;4.80;;;4.23;;
13197;SDS011;6664;52.514;13.440;2022-08-05T01:45:54;4.67;;;3.83;;
13197;SDS011;6664;52.514;13.440;2022-08-05T01:48:23;4.53;;;3.70;;
13197;SDS011;6664;52.514;13.440;2022-08-05T01:50:53;4.67;;;4.33;;
13197;SDS011;6664;52.514;13.440;2022-08-05T01:53:37;7.63;;;4.50;;
13197;SDS011;6664;52.514;13.440;2022-08-05T01:56:24;5.87;;;4.03;;
13197;SDS011;6664;52.514;13.440;2022-08-05T01:59:16;4.60;;;4.07;;
13197;SDS011;6664;52.514;13.440;2022-08-05T02:01:51;5.00;;;3.97;;
13197;SDS011;6664;52.514;13.440;2022-08-05T02:04:23;5.07;;;4.30;;
13197;SDS011;6664;52.514;13.440;2022-08-05T02:06:55;6.53;;;4.20;;
13197;SDS011;6664;52.514;13.440;2022-08-05T02:09:23;4.00;;;3.63;;
13197;SDS011;6664;52.514;13.440;2022-08-05T02:12:00;4.03;;;3.73;;
13197;SDS011;6664;52.514;13.440;2022-08-05T02:14:32;4.43;;;3.97;;
13197;SDS011;6664;52.514;13.440;2022-08-05T02:17:07;3.87;;;3.50;;
13197;SDS011;6664;52.514;13.440;2022-08-05T02:20:17;4.80;;;3.43;;
13197;SDS011;6664;52.514;13.440;2022-08-05T02:22:55;4.20;;;3.80;;
13197;SDS011;6664;52.514;13.440;2022-08-05T02:25:25;8.03;;;3.80;;
13197;SDS011;6664;52.514;13.440;2022-08-05T02:27:58;3.90;;;3.50;;
13197;SDS011;6664;52.514;13.440;2022-08-05T02:30:44;3.90;;;3.60;;
13197;SDS011;6664;52.514;13.440;2022-08-05T02:33:20;4.93;;;3.53;;
13197;SDS011;6664;52.514;13.440;2022-08-05T02:36:03;4.30;;;3.90;;
13197;SDS011;6664;52.514;13.440;2022-08-05T02:38:34;3.60;;;3.30;;
13197;SDS011;6664;52.514;13.440;2022-08-05T02:41:03;4.70;;;3.37;;
13197;SDS011;6664;52.514;13.440;2022-08-05T02:43:43;4.57;;;3.63;;
13197;SDS011;6664;52.514;13.440;2022-08-05T02:46:33;3.90;;;3.50;;
13197;SDS011;6664;52.514;13.440;2022-08-05T02:49:18;3.93;;;3.60;;
13197;SDS011;6664;52.514;13.440;2022-08-05T02:51:47;7.17;;;4.00;;
13197;SDS011;6664;52.514;13.440;2022-08-05T02:54:30;5.67;;;3.67;;
13197;SDS011;6664;52.514;13.440;2022-08-05T02:57:04;3.50;;;3.30;;
13197;SDS011;6664;52.514;13.440;2022-08-05T02:59:56;3.40;;;3.10;;
13197;SDS011;6664;52.514;13.440;2022-08-05T03:02:28;4.10;;;3.43;;
13197;SDS011;6664;52.514;13.440;2022-08-05T03:05:02;4.20;;;3.30;;
13197;SDS011;6664;52.514;13.440;2022-08-05T03:07:30;5.40;;;3.10;;
13197;SDS011;6664;52.514;13.440;2022-08-05T03:10:18;5.47;;;4.00;;
13197;SDS011;6664;52.514;13.440;2022-08-05T03:12:50;3.17;;;2.90;;
13197;SDS011;6664;52.514;13.440;2022-08-05T03:15:19;7.57;;;3.30;;
13197;SDS011;6664;52.514;13.440;2022-08-05T03:17:51;3.43;;;3.20;;
13197;SDS011;6664;52.514;13.440;2022-08-05T03:20:21;6.00;;;3.17;;
13197;SDS011;6664;52.514;13.440;2022-08-05T03:22:49;3.53;;;3.23;;
13197;SDS011;6664;52.514;13.440;2022-08-05T03:25:19;4.07;;;3.57;;
13197;SDS011;6664;52.514;13.440;2022-08-05T03:28:08;3.47;;;3.27;;
13197;SDS011;6664;52.514;13.440;2022-08-05T03:30:39;5.03;;;3.57;;
13197;SDS011;6664;52.514;13.440;2022-08-05T03:33:07;3.50;;;3.20;;
13197;SDS011;6664;52.514;13.440;2022-08-05T03:35:34;5.17;;;3.03;;
13197;SDS011;6664;52.514;13.440;2022-08-05T03:38:07;3.20;;;3.00;;
13197;SDS011;6664;52.514;13.440;2022-08-05T03:40:40;3.37;;;3.10;;
13197;SDS011;6664;52.514;13.440;2022-08-05T03:43:14;4.30;;;3.47;;
13197;SDS011;6664;52.514;13.440;2022-08-05T03:46:04;3.80;;;3.50;;
13197;SDS011;6664;52.514;13.440;2022-08-05T03:48:36;10.30;;;3.50;;
13197;SDS011;6664;52.514;13.440;2022-08-05T03:51:09;5.17;;;3.40;;
13197;SDS011;6664;52.514;13.440;2022-08-05T03:54:11;6.37;;;3.37;;
13197;SDS011;6664;52.514;13.440;2022-08-05T03:57:19;11.23;;;3.30;;
13197;SDS011;6664;52.514;13.440;2022-08-05T04:00:08;3.63;;;3.33;;
13197;SDS011;6664;52.514;13.440;2022-08-05T04:02:45;3.20;;;3.00;;
13197;SDS011;6664;52.514;13.440;2022-08-05T04:05:28;9.33;;;3.77;;
13197;SDS011;6664;52.514;13.440;2022-08-05T04:08:02;4.03;;;3.73;;
13197;SDS011;6664;52.514;13.440;2022-08-05T04:10:53;6.10;;;3.40;;
13197;SDS011;6664;52.514;13.440;2022-08-05T04:13:24;4.67;;;3.50;;
13197;SDS011;6664;52.514;13.440;2022-08-05T04:16:11;5.27;;;3.50;;
13197;SDS011;6664;52.514;13.440;2022-08-05T04:18:39;6.13;;;2.90;;
13197;SDS011;6664;52.514;13.440;2022-08-05T04:21:07;3.73;;;3.07;;
13197;SDS011;6664;52.514;13.440;2022-08-05T04:23:36;3.70;;;3.00;;
13197;SDS011;6664;52.514;13.440;2022-08-05T04:26:24;3.40;;;3.20;;
13197;SDS011;6664;52.514;13.440;2022-08-05T04:28:58;5.30;;;3.30;;
13197;SDS011;6664;52.514;13.440;2022-08-05T04:31:32;3.43;;;3.13;;
13197;SDS011;6664;52.514;13.440;2022-08-05T04:34:03;7.50;;;2.90;;
13197;SDS011;6664;52.514;13.440;2022-08-05T04:36:50;4.73;;;3.80;;
13197;SDS011;6664;52.514;13.440;2022-08-05T04:39:20;5.77;;;3.63;;
13197;SDS011;6664;52.514;13.440;2022-08-05T04:41:47;6.33;;;3.10;;
13197;SDS011;6664;52.514;13.440;2022-08-05T04:44:16;3.10;;;2.90;;
13197;SDS011;6664;52.514;13.440;2022-08-05T04:46:55;3.97;;;3.67;;
13197;SDS011;6664;52.514;13.440;2022-08-05T04:49:25;3.73;;;3.13;;
13197;SDS011;6664;52.514;13.440;2022-08-05T04:52:12;6.13;;;3.30;;
13197;SDS011;6664;52.514;13.440;2022-08-05T04:54:40;5.30;;;3.40;;
13197;SDS011;6664;52.514;13.440;2022-08-05T04:57:09;5.03;;;3.50;;
13197;SDS011;6664;52.514;13.440;2022-08-05T04:59:36;3.10;;;2.80;;
13197;SDS011;6664;52.514;13.440;2022-08-05T05:02:08;3.30;;;3.10;;
13197;SDS011;6664;52.514;13.440;2022-08-05T05:04:55;3.57;;;3.27;;
13197;SDS011;6664;52.514;13.440;2022-08-05T05:07:28;3.80;;;2.93;;
13197;SDS011;6664;52.514;13.440;2022-08-05T05:09:58;4.13;;;3.17;;
13197;SDS011;6664;52.514;13.440;2022-08-05T05:12:31;3.53;;;3.23;;
13197;SDS011;6664;52.514;13.440;2022-08-05T05:15:02;5.37;;;3.43;;
13197;SDS011;6664;52.514;13.440;2022-08-05T05:17:39;3.60;;;3.20;;
13197;SDS011;6664;52.514;13.440;2022-08-05T05:20:23;3.53;;;3.10;;
13197;SDS011;6664;52.514;13.440;2022-08-05T05:22:56;3.43;;;3.10;;
13197;SDS011;6664;52.514;13.440;2022-08-05T05:25:24;4.47;;;2.80;;
13197;SDS011;6664;52.514;13.440;2022-08-05T05:28:06;5.10;;;2.90;;
13197;SDS011;6664;52.514;13.440;2022-08-05T05:30:34;4.00;;;3.00;;
13197;SDS011;6664;52.514;13.440;2022-08-05T05:33:02;3.73;;;3.43;;
13197;SDS011;6664;52.514;13.440;2022-08-05T05:35:43;5.40;;;2.90;;
13197;SDS011;6664;52.514;13.440;2022-08-05T05:38:10;3.17;;;2.87;;
13197;SDS011;6664;52.514;13.440;2022-08-05T05:40:40;5.90;;;3.23;;
13197;SDS011;6664;52.514;13.440;2022-08-05T05:43:17;20.40;;;6.50;;
13197;SDS011;6664;52.514;13.440;2022-08-05T05:46:05;16.73;;;5.17;;
13197;SDS011;6664;52.514;13.440;2022-08-05T05:48:41;5.03;;;3.00;;
13197;SDS011;6664;52.514;13.440;2022-08-05T05:51:09;7.40;;;4.30;;
13197;SDS011;6664;52.514;13.440;2022-08-05T05:53:41;5.23;;;3.70;;
13197;SDS011;6664;52.514;13.440;2022-08-05T05:56:22;3.93;;;3.63;;
13197;SDS011;6664;52.514;13.440;2022-08-05T05:58:58;4.03;;;3.23;;
13197;SDS011;6664;52.514;13.440;2022-08-05T06:01:29;3.17;;;2.97;;
13197;SDS011;6664;52.514;13.440;2022-08-05T06:04:06;4.43;;;3.47;;
13197;SDS011;6664;52.514;13.440;2022-08-05T06:06:40;4.40;;;3.33;;
13197;SDS011;6664;52.514;13.440;2022-08-05T06:09:16;3.63;;;2.87;;
13197;SDS011;6664;52.514;13.440;2022-08-05T06:12:03;14.70;;;3.10;;
13197;SDS011;6664;52.514;13.440;2022-08-05T06:14:30;5.33;;;3.30;;
13197;SDS011;6664;52.514;13.440;2022-08-05T06:16:59;9.77;;;4.07;;
13197;SDS011;6664;52.514;13.440;2022-08-05T06:19:47;7.40;;;4.67;;
13197;SDS011;6664;52.514;13.440;2022-08-05T06:22:33;6.03;;;3.30;;
13197;SDS011;6664;52.514;13.440;2022-08-05T06:25:01;15.33;;;2.87;;
13197;SDS011;6664;52.514;13.440;2022-08-05T06:27:53;5.40;;;2.83;;
13197;SDS011;6664;52.514;13.440;2022-08-05T06:30:40;4.40;;;2.70;;
13197;SDS011;6664;52.514;13.440;2022-08-05T06:33:07;3.30;;;3.00;;
13197;SDS011;6664;52.514;13.440;2022-08-05T06:35:44;4.23;;;2.67;;
13197;SDS011;6664;52.514;13.440;2022-08-05T06:38:31;2.67;;;2.47;;
13197;SDS011;6664;52.514;13.440;2022-08-05T06:41:02;3.97;;;2.40;;
13197;SDS011;6664;52.514;13.440;2022-08-05T06:43:36;2.60;;;2.40;;
13197;SDS011;6664;52.514;13.440;2022-08-05T06:46:23;3.43;;;2.80;;
13197;SDS011;6664;52.514;13.440;2022-08-05T06:48:55;5.20;;;2.27;;
13197;SDS011;6664;52.514;13.440;2022-08-05T06:51:25;2.73;;;2.40;;
13197;SDS011;6664;52.514;13.440;2022-08-05T06:53:55;2.63;;;2.47;;
13197;SDS011;6664;52.514;13.440;2022-08-05T06:56:27;2.33;;;2.03;;
13197;SDS011;6664;52.514;13.440;2022-08-05T06:58:57;3.03;;;2.20;;
13197;SDS011;6664;52.514;13.440;2022-08-05T07:01:25;2.30;;;2.20;;
13197;SDS011;6664;52.514;13.440;2022-08-05T07:03:57;2.10;;;2.00;;
13197;SDS011;6664;52.514;13.440;2022-08-05T07:06:24;2.90;;;2.70;;
13197;SDS011;6664;52.514;13.440;2022-08-05T07:08:53;2.50;;;1.80;;
13197;SDS011;6664;52.514;13.440;2022-08-05T07:11:20;2.43;;;2.10;;
13197;SDS011;6664;52.514;13.440;2022-08-05T07:13:50;2.67;;;2.00;;
13197;SDS011;6664;52.514;13.440;2022-08-05T07:16:46;7.40;;;1.90;;
13197;SDS011;6664;52.514;13.440;2022-08-05T07:19:37;1.80;;;1.70;;
13197;SDS011;6664;52.514;13.440;2022-08-05T07:22:24;5.03;;;2.93;;
13197;SDS011;6664;52.514;13.440;2022-08-05T07:24:58;2.47;;;1.80;;
13197;SDS011;6664;52.514;13.440;2022-08-05T07:27:49;2.30;;;2.20;;
13197;SDS011;6664;52.514;13.440;2022-08-05T07:30:27;2.27;;;1.83;;
13197;SDS011;6664;52.514;13.440;2022-08-05T07:33:03;1.83;;;1.73;;
13197;SDS011;6664;52.514;13.440;2022-08-05T07:35:38;4.00;;;1.97;;
13197;SDS011;6664;52.514;13.440;2022-08-05T07:38:25;2.20;;;1.67;;
13197;SDS011;6664;52.514;13.440;2022-08-05T07:40:59;3.77;;;2.03;;
13197;SDS011;6664;52.514;13.440;2022-08-05T07:44:00;2.70;;;2.40;;
13197;SDS011;6664;52.514;13.440;2022-08-05T07:46:30;2.13;;;1.80;;
13197;SDS011;6664;52.514;13.440;2022-08-05T07:48:59;2.00;;;1.80;;
13197;SDS011;6664;52.514;13.440;2022-08-05T07:51:32;2.27;;;1.80;;
13197;SDS011;6664;52.514;13.440;2022-08-05T07:54:06;1.93;;;1.83;;
13197;SDS011;6664;52.514;13.440;2022-08-05T07:56:36;4.50;;;2.33;;
13197;SDS011;6664;52.514;13.440;2022-08-05T07:59:23;2.00;;;1.73;;
13197;SDS011;6664;52.514;13.440;2022-08-05T08:02:06;2.00;;;1.90;;
13197;SDS011;6664;52.514;13.440;2022-08-05T08:04:46;2.73;;;1.97;;
13197;SDS011;6664;52.514;13.440;2022-08-05T08:07:16;1.83;;;1.70;;
13197;SDS011;6664;52.514;13.440;2022-08-05T08:09:48;3.93;;;1.93;;
13197;SDS011;6664;52.514;13.440;2022-08-05T08:12:17;4.10;;;2.90;;
13197;SDS011;6664;52.514;13.440;2022-08-05T08:15:06;4.10;;;2.43;;
13197;SDS011;6664;52.514;13.440;2022-08-05T08:17:39;2.37;;;2.17;;
13197;SDS011;6664;52.514;13.440;2022-08-05T08:20:15;2.67;;;2.40;;
13197;SDS011;6664;52.514;13.440;2022-08-05T08:23:03;5.90;;;1.50;;
13197;SDS011;6664;52.514;13.440;2022-08-05T08:25:46;1.80;;;1.70;;
13197;SDS011;6664;52.514;13.440;2022-08-05T08:28:30;3.50;;;2.20;;
13197;SDS011;6664;52.514;13.440;2022-08-05T08:31:20;1.93;;;1.80;;
13197;SDS011;6664;52.514;13.440;2022-08-05T08:33:52;2.10;;;1.90;;
13197;SDS011;6664;52.514;13.440;2022-08-05T08:36:22;2.93;;;2.07;;
13197;SDS011;6664;52.514;13.440;2022-08-05T08:39:07;3.13;;;2.23;;
13197;SDS011;6664;52.514;13.440;2022-08-05T08:41:41;2.40;;;1.93;;
13197;SDS011;6664;52.514;13.440;2022-08-05T08:44:26;1.77;;;1.67;;
13197;SDS011;6664;52.514;13.440;2022-08-05T08:47:15;4.23;;;1.90;;
13197;SDS011;6664;52.514;13.440;2022-08-05T08:50:08;8.00;;;1.80;;
13197;SDS011;6664;52.514;13.440;2022-08-05T08:52:59;2.50;;;1.63;;
13197;SDS011;6664;52.514;13.440;2022-08-05T08:55:38;6.00;;;1.73;;
13197;SDS011;6664;52.514;13.440;2022-08-05T08:58:25;3.70;;;1.77;;
13197;SDS011;6664;52.514;13.440;2022-08-05T09:01:12;2.57;;;1.70;;
13197;SDS011;6664;52.514;13.440;2022-08-05T09:03:43;1.90;;;1.80;;
13197;SDS011;6664;52.514;13.440;2022-08-05T09:06:13;1.77;;;1.67;;
13197;SDS011;6664;52.514;13.440;2022-08-05T09:08:49;1.90;;;1.80;;
13197;SDS011;6664;52.514;13.440;2022-08-05T09:11:20;1.73;;;1.63;;
13197;SDS011;6664;52.514;13.440;2022-08-05T09:14:10;2.57;;;1.70;;
13197;SDS011;6664;52.514;13.440;2022-08-05T09:16:58;2.60;;;2.23;;
13197;SDS011;6664;52.514;13.440;2022-08-05T09:19:26;2.23;;;1.77;;
13197;SDS011;6664;52.514;13.440;2022-08-05T09:22:15;1.73;;;1.63;;
13197;SDS011;6664;52.514;13.440;2022-08-05T09:24:57;3.47;;;2.17;;
13197;SDS011;6664;52.514;13.440;2022-08-05T09:27:48;2.30;;;2.10;;
13197;SDS011;6664;52.514;13.440;2022-08-05T09:30:32;2.40;;;2.20;;
13197;SDS011;6664;52.514;13.440;2022-08-05T09:33:00;4.00;;;2.40;;
13197;SDS011;6664;52.514;13.440;2022-08-05T09:35:29;2.97;;;1.93;;
13197;SDS011;6664;52.514;13.440;2022-08-05T09:37:58;2.73;;;1.80;;
13197;SDS011;6664;52.514;13.440;2022-08-05T09:40:43;1.83;;;1.73;;
13197;SDS011;6664;52.514;13.440;2022-08-05T09:43:25;2.00;;;1.80;;
13197;SDS011;6664;52.514;13.440;2022-08-05T09:46:07;1.70;;;1.60;;
13197;SDS011;6664;52.514;13.440;2022-08-05T09:49:02;1.60;;;1.50;;
13197;SDS011;6664;52.514;13.440;2022-08-05T09:51:45;1.80;;;1.70;;
13197;SDS011;6664;52.514;13.440;2022-08-05T09:54:16;2.43;;;2.10;;
13197;SDS011;6664;52.514;13.440;2022-08-05T09:56:55;3.03;;;1.77;;
13197;SDS011;6664;52.514;13.440;2022-08-05T09:59:27;4.07;;;1.93;;
13197;SDS011;6664;52.514;13.440;2022-08-05T10:02:00;4.50;;;1.90;;
13197;SDS011;6664;52.514;13.440;2022-08-05T10:04:33;2.07;;;1.97;;
13197;SDS011;6664;52.514;13.440;2022-08-05T10:07:03;1.70;;;1.60;;
13197;SDS011;6664;52.514;13.440;2022-08-05T10:09:55;1.97;;;1.80;;
13197;SDS011;6664;52.514;13.440;2022-08-05T10:12:42;2.53;;;1.50;;
13197;SDS011;6664;52.514;13.440;2022-08-05T10:15:18;2.57;;;1.63;;
13197;SDS011;6664;52.514;13.440;2022-08-05T10:20:49;2.50;;;1.60;;
13197;SDS011;6664;52.514;13.440;2022-08-05T10:23:39;2.30;;;2.10;;
13197;SDS011;6664;52.514;13.440;2022-08-05T10:26:28;2.50;;;1.77;;
13197;SDS011;6664;52.514;13.440;2022-08-05T10:28:59;4.30;;;2.53;;
13197;SDS011;6664;52.514;13.440;2022-08-05T10:31:28;1.93;;;1.80;;
13197;SDS011;6664;52.514;13.440;2022-08-05T10:34:17;1.73;;;1.63;;
13197;SDS011;6664;52.514;13.440;2022-08-05T10:36:51;2.20;;;2.00;;
13197;SDS011;6664;52.514;13.440;2022-08-05T10:39:19;4.67;;;2.97;;
13197;SDS011;6664;52.514;13.440;2022-08-05T10:42:11;1.93;;;1.80;;
13197;SDS011;6664;52.514;13.440;2022-08-05T10:44:48;4.40;;;2.30;;
13197;SDS011;6664;52.514;13.440;2022-08-05T10:47:16;2.30;;;2.20;;
13197;SDS011;6664;52.514;13.440;2022-08-05T10:49:59;1.97;;;1.87;;
13197;SDS011;6664;52.514;13.440;2022-08-05T10:52:57;2.60;;;2.10;;
13197;SDS011;6664;52.514;13.440;2022-08-05T10:55:25;1.93;;;1.60;;
13197;SDS011;6664;52.514;13.440;2022-08-05T10:58:05;5.13;;;1.90;;
13197;SDS011;6664;52.514;13.440;2022-08-05T11:00:34;5.37;;;1.63;;
13197;SDS011;6664;52.514;13.440;2022-08-05T11:03:09;1.93;;;1.77;;
13197;SDS011;6664;52.514;13.440;2022-08-05T11:06:04;3.47;;;1.80;;
13197;SDS011;6664;52.514;13.440;2022-08-05T11:15:08;6.57;;;1.80;;
13197;SDS011;6664;52.514;13.440;2022-08-05T11:17:53;2.33;;;1.57;;
13197;SDS011;6664;52.514;13.440;2022-08-05T11:20:41;2.70;;;1.70;;
13197;SDS011;6664;52.514;13.440;2022-08-05T11:23:30;1.87;;;1.43;;
13197;SDS011;6664;52.514;13.440;2022-08-05T11:26:35;4.00;;;1.50;;
13197;SDS011;6664;52.514;13.440;2022-08-05T11:29:03;1.70;;;1.60;;
13197;SDS011;6664;52.514;13.440;2022-08-05T11:31:40;2.50;;;1.80;;
13197;SDS011;6664;52.514;13.440;2022-08-05T11:34:34;1.90;;;1.67;;
13197;SDS011;6664;52.514;13.440;2022-08-05T11:37:03;1.77;;;1.67;;
13197;SDS011;6664;52.514;13.440;2022-08-05T11:39:50;1.60;;;1.50;;
13197;SDS011;6664;52.514;13.440;2022-08-05T11:42:28;1.80;;;1.70;;
13197;SDS011;6664;52.514;13.440;2022-08-05T11:45:05;1.70;;;1.57;;
13197;SDS011;6664;52.514;13.440;2022-08-05T11:47:51;1.90;;;1.47;;
13197;SDS011;6664;52.514;13.440;2022-08-05T11:50:21;1.87;;;1.67;;
13197;SDS011;6664;52.514;13.440;2022-08-05T11:52:48;1.30;;;1.20;;
13197;SDS011;6664;52.514;13.440;2022-08-05T11:55:25;1.70;;;1.60;;
13197;SDS011;6664;52.514;13.440;2022-08-05T11:58:01;1.73;;;1.63;;
13197;SDS011;6664;52.514;13.440;2022-08-05T12:00:39;1.90;;;1.80;;
13197;SDS011;6664;52.514;13.440;2022-08-05T12:03:16;2.70;;;2.17;;
13197;SDS011;6664;52.514;13.440;2022-08-05T12:05:58;2.50;;;1.63;;
13197;SDS011;6664;52.514;13.440;2022-08-05T12:08:27;2.20;;;2.10;;
13197;SDS011;6664;52.514;13.440;2022-08-05T12:10:57;2.00;;;1.90;;
13197;SDS011;6664;52.514;13.440;2022-08-05T12:13:31;1.87;;;1.77;;
13197;SDS011;6664;52.514;13.440;2022-08-05T12:16:16;1.60;;;1.50;;
13197;SDS011;6664;52.514;13.440;2022-08-05T12:18:44;2.00;;;1.87;;
13197;SDS011;6664;52.514;13.440;2022-08-05T12:21:24;1.67;;;1.40;;
13197;SDS011;6664;52.514;13.440;2022-08-05T12:24:05;2.40;;;2.13;;
13197;SDS011;6664;52.514;13.440;2022-08-05T12:26:40;2.60;;;1.63;;
13197;SDS011;6664;52.514;13.440;2022-08-05T12:29:19;2.83;;;2.17;;
13197;SDS011;6664;52.514;13.440;2022-08-05T12:31:51;2.30;;;1.87;;
13197;SDS011;6664;52.514;13.440;2022-08-05T12:34:23;3.70;;;2.10;;
13197;SDS011;6664;52.514;13.440;2022-08-05T12:37:15;2.30;;;2.10;;
13197;SDS011;6664;52.514;13.440;2022-08-05T12:39:55;4.93;;;1.90;;
13197;SDS011;6664;52.514;13.440;2022-08-05T12:42:36;2.17;;;1.97;;
13197;SDS011;6664;52.514;13.440;2022-08-05T12:45:05;1.90;;;1.50;;
13197;SDS011;6664;52.514;13.440;2022-08-05T12:47:35;1.70;;;1.60;;
13197;SDS011;6664;52.514;13.440;2022-08-05T12:50:12;2.00;;;1.80;;
13197;SDS011;6664;52.514;13.440;2022-08-05T12:52:41;2.65;;;2.55;;
13197;SDS011;6664;52.514;13.440;2022-08-05T12:55:26;4.88;;;1.42;;
13197;SDS011;6664;52.514;13.440;2022-08-05T12:57:58;1.55;;;1.45;;
13197;SDS011;6664;52.514;13.440;2022-08-05T13:00:47;0.98;;;0.98;;
13197;SDS011;6664;52.514;13.440;2022-08-05T13:03:36;1.55;;;1.38;;
13197;SDS011;6664;52.514;13.440;2022-08-05T13:06:11;1.23;;;1.13;;
13197;SDS011;6664;52.514;13.440;2022-08-05T13:08:41;1.33;;;1.20;;
13197;SDS011;6664;52.514;13.440;2022-08-05T13:11:17;1.33;;;1.33;;
13197;SDS011;6664;52.514;13.440;2022-08-05T13:14:16;1.55;;;1.45;;
13197;SDS011;6664;52.514;13.440;2022-08-05T13:17:02;1.23;;;1.23;;
13197;SDS011;6664;52.514;13.440;2022-08-05T13:20:10;1.50;;;1.40;;
13197;SDS011;6664;52.514;13.440;2022-08-05T13:22:46;2.80;;;1.57;;
13197;SDS011;6664;52.514;13.440;2022-08-05T13:25:15;1.73;;;1.63;;
13197;SDS011;6664;52.514;13.440;2022-08-05T13:28:05;1.70;;;1.60;;
13197;SDS011;6664;52.514;13.440;2022-08-05T13:30:35;2.03;;;1.80;;
13197;SDS011;6664;52.514;13.440;2022-08-05T13:33:04;2.90;;;1.60;;
13197;SDS011;6664;52.514;13.440;2022-08-05T13:35:31;1.53;;;1.43;;
13197;SDS011;6664;52.514;13.440;2022-08-05T13:38:17;1.77;;;1.20;;
13197;SDS011;6664;52.514;13.440;2022-08-05T13:40:56;1.45;;;1.27;;
13197;SDS011;6664;52.514;13.440;2022-08-05T13:43:25;2.28;;;1.50;;
13197;SDS011;6664;52.514;13.440;2022-08-05T13:46:14;1.45;;;1.17;;
13197;SDS011;6664;52.514;13.440;2022-08-05T13:49:03;2.45;;;1.20;;
13197;SDS011;6664;52.514;13.440;2022-08-05T13:51:37;1.23;;;1.20;;
13197;SDS011;6664;52.514;13.440;2022-08-05T13:54:09;0.90;;;0.90;;
13197;SDS011;6664;52.514;13.440;2022-08-05T13:56:40;1.25;;;1.17;;
13197;SDS011;6664;52.514;13.440;2022-08-05T13:59:16;2.28;;;1.52;;
13197;SDS011;6664;52.514;13.440;2022-08-05T14:01:51;2.38;;;1.30;;
13197;SDS011;6664;52.514;13.440;2022-08-05T14:04:28;1.63;;;1.30;;
13197;SDS011;6664;52.514;13.440;2022-08-05T14:07:26;1.60;;;1.50;;
13197;SDS011;6664;52.514;13.440;2022-08-05T14:10:18;2.20;;;1.03;;
13197;SDS011;6664;52.514;13.440;2022-08-05T14:12:54;1.50;;;1.40;;
13197;SDS011;6664;52.514;13.440;2022-08-05T14:15:22;3.20;;;1.73;;
13197;SDS011;6664;52.514;13.440;2022-08-05T14:18:10;2.00;;;1.73;;
13197;SDS011;6664;52.514;13.440;2022-08-05T14:20:44;1.77;;;1.67;;
13197;SDS011;6664;52.514;13.440;2022-08-05T14:23:20;4.10;;;2.00;;
13197;SDS011;6664;52.514;13.440;2022-08-05T14:25:54;1.50;;;1.40;;
13197;SDS011;6664;52.514;13.440;2022-08-05T14:28:27;1.77;;;1.67;;
13197;SDS011;6664;52.514;13.440;2022-08-05T14:30:56;1.97;;;1.87;;
13197;SDS011;6664;52.514;13.440;2022-08-05T14:33:25;1.67;;;1.57;;
13197;SDS011;6664;52.514;13.440;2022-08-05T14:35:57;2.77;;;1.87;;
13197;SDS011;6664;52.514;13.440;2022-08-05T14:38:28;2.07;;;1.70;;
13197;SDS011;6664;52.514;13.440;2022-08-05T14:41:02;2.23;;;2.07;;
13197;SDS011;6664;52.514;13.440;2022-08-05T14:43:31;2.03;;;1.83;;
13197;SDS011;6664;52.514;13.440;2022-08-05T14:46:21;1.90;;;1.80;;
13197;SDS011;6664;52.514;13.440;2022-08-05T14:48:55;2.20;;;2.00;;
13197;SDS011;6664;52.514;13.440;2022-08-05T14:51:24;2.33;;;2.13;;
13197;SDS011;6664;52.514;13.440;2022-08-05T14:53:56;2.23;;;2.00;;
13197;SDS011;6664;52.514;13.440;2022-08-05T14:56:46;2.67;;;2.47;;
13197;SDS011;6664;52.514;13.440;2022-08-05T14:59:19;3.60;;;2.13;;
13197;SDS011;6664;52.514;13.440;2022-08-05T15:01:49;2.60;;;2.40;;
13197;SDS011;6664;52.514;13.440;2022-08-05T15:04:19;2.23;;;2.00;;
13197;SDS011;6664;52.514;13.440;2022-08-05T15:06:51;2.03;;;1.93;;
13197;SDS011;6664;52.514;13.440;2022-08-05T15:09:18;2.80;;;2.60;;
13197;SDS011;6664;52.514;13.440;2022-08-05T15:12:06;4.43;;;3.27;;
13197;SDS011;6664;52.514;13.440;2022-08-05T15:14:37;2.63;;;2.43;;
13197;SDS011;6664;52.514;13.440;2022-08-05T15:17:14;2.50;;;2.37;;
13197;SDS011;6664;52.514;13.440;2022-08-05T15:20:02;6.37;;;2.80;;
13197;SDS011;6664;52.514;13.440;2022-08-05T15:22:31;3.23;;;2.87;;
13197;SDS011;6664;52.514;13.440;2022-08-05T15:24:58;2.60;;;2.40;;
13197;SDS011;6664;52.514;13.440;2022-08-05T15:27:39;2.73;;;2.40;;
13197;SDS011;6664;52.514;13.440;2022-08-05T15:30:19;2.50;;;2.30;;
13197;SDS011;6664;52.514;13.440;2022-08-05T15:32:47;3.80;;;2.30;;
13197;SDS011;6664;52.514;13.440;2022-08-05T15:35:14;4.93;;;3.07;;
13197;SDS011;6664;52.514;13.440;2022-08-05T15:37:47;7.00;;;2.70;;
13197;SDS011;6664;52.514;13.440;2022-08-05T15:40:34;6.23;;;2.60;;
13197;SDS011;6664;52.514;13.440;2022-08-05T15:43:21;7.83;;;3.17;;
13197;SDS011;6664;52.514;13.440;2022-08-05T15:45:52;2.80;;;2.60;;
13197;SDS011;6664;52.514;13.440;2022-08-05T15:48:26;5.03;;;2.60;;
13197;SDS011;6664;52.514;13.440;2022-08-05T15:50:56;2.93;;;2.43;;
13197;SDS011;6664;52.514;13.440;2022-08-05T15:53:28;2.80;;;2.60;;
13197;SDS011;6664;52.514;13.440;2022-08-05T15:56:15;3.80;;;2.80;;
13197;SDS011;6664;52.514;13.440;2022-08-05T15:58:43;4.47;;;2.50;;
13197;SDS011;6664;52.514;13.440;2022-08-05T16:01:10;5.70;;;3.30;;
13197;SDS011;6664;52.514;13.440;2022-08-05T16:03:43;2.97;;;2.70;;
13197;SDS011;6664;52.514;13.440;2022-08-05T16:06:17;2.70;;;2.50;;
13197;SDS011;6664;52.514;13.440;2022-08-05T16:08:46;3.27;;;2.47;;
13197;SDS011;6664;52.514;13.440;2022-08-05T16:11:23;3.37;;;3.07;;